Time;durP1;ratioP1;P1;durP2;ratioP2;P2;SDS_P1;SDS_P2;PMS_P1;PMS_P2;Temp;Humidity;BMP_temperature;BMP_pressure;BME280_temperature;BME280_humidity;BME280_pressure;Samples;Min_cycle;Max_cycle;Signal;HPM_P1;HPM_P2
2023/04/11 00:00:22;;;;;;;8.20;2.65;;;;;;;12.78;70.40;100227.53;4118845;28;20052;-69
2023/04/11 00:02:25;;;;;;;3.80;2.38;;;;;;;12.74;70.94;100229.25;4144494;28;20045;-69
2023/04/11 00:04:28;;;;;;;5.20;2.60;;;;;;;12.66;70.87;100232.69;4125828;28;20495;-69
2023/04/11 00:06:32;;;;;;;3.88;2.17;;;;;;;12.58;71.83;100238.78;4124034;28;20038;-69
2023/04/11 00:08:35;;;;;;;3.53;2.35;;;;;;;12.61;71.82;100234.44;4124633;28;20560;-69
2023/04/11 00:10:38;;;;;;;4.03;2.20;;;;;;;12.72;71.44;100235.34;4123118;28;20045;-69
2023/04/11 00:12:41;;;;;;;7.63;2.42;;;;;;;12.73;71.58;100239.69;4115745;28;20035;-69
2023/04/11 00:14:47;;;;;;;3.22;2.05;;;;;;;12.66;72.11;100240.53;4126735;28;20035;-70
2023/04/11 00:16:52;;;;;;;4.47;2.63;;;;;;;12.80;71.69;100253.63;4128519;28;20038;-69
2023/04/11 00:18:56;;;;;;;3.47;2.08;;;;;;;12.93;71.13;100255.38;4128699;28;20094;-69
2023/04/11 00:20:59;;;;;;;3.20;2.03;;;;;;;13.00;70.79;100238.00;4144991;28;20034;-69
2023/04/11 00:23:02;;;;;;;4.53;1.73;;;;;;;12.84;70.73;100232.75;4122873;28;20465;-69
2023/04/11 00:25:05;;;;;;;3.47;1.98;;;;;;;12.78;70.84;100221.44;4139902;28;20100;-69
2023/04/11 00:27:08;;;;;;;3.15;1.73;;;;;;;12.71;71.01;100226.63;4129750;28;20046;-69
2023/04/11 00:29:11;;;;;;;4.07;1.90;;;;;;;12.69;70.88;100238.81;4129164;28;20037;-69
2023/04/11 00:31:15;;;;;;;2.08;1.63;;;;;;;12.63;71.16;100233.59;4125673;28;20038;-69
2023/04/11 00:33:19;;;;;;;3.60;1.65;;;;;;;12.62;71.34;100238.81;4144293;28;20170;-69
2023/04/11 00:35:22;;;;;;;2.63;1.58;;;;;;;12.61;71.37;100237.06;4144788;28;20484;-69
2023/04/11 00:37:25;;;;;;;1.33;1.20;;;;;;;12.64;70.65;100229.25;4127982;28;20065;-69
2023/04/11 00:39:29;;;;;;;1.20;1.10;;;;;;;12.57;70.66;100224.00;4128648;28;20555;-70
2023/04/11 00:41:32;;;;;;;3.45;1.48;;;;;;;12.62;70.11;100239.66;4128616;28;20062;-69
2023/04/11 00:43:34;;;;;;;4.18;1.42;;;;;;;12.55;70.35;100235.31;4121642;28;20039;-70
2023/04/11 00:45:38;;;;;;;2.40;1.83;;;;;;;12.63;70.29;100214.44;4128849;28;20123;-70
2023/04/11 00:47:41;;;;;;;3.22;1.70;;;;;;;12.70;70.13;100210.97;4144313;28;20045;-70
2023/04/11 00:49:46;;;;;;;2.92;1.65;;;;;;;12.77;70.69;100204.91;4124503;28;20038;-71
2023/04/11 00:51:48;;;;;;;2.47;1.48;;;;;;;12.78;71.01;100203.19;4124228;28;20038;-70
2023/04/11 00:53:51;;;;;;;1.55;1.40;;;;;;;12.82;71.13;100211.00;4123303;28;20124;-70
2023/04/11 00:55:54;;;;;;;3.72;1.90;;;;;;;12.88;71.06;100205.78;4126526;28;20073;-70
2023/04/11 00:57:57;;;;;;;2.60;1.60;;;;;;;12.89;71.10;100204.94;4128329;28;20504;-70
2023/04/11 01:00:00;;;;;;;1.98;1.60;;;;;;;12.90;71.02;100198.81;4124120;28;20039;-69
2023/04/11 01:02:03;;;;;;;2.88;1.52;;;;;;;12.93;70.84;100196.22;4122374;28;20042;-70
2023/04/11 01:04:06;;;;;;;2.22;1.40;;;;;;;12.95;71.19;100205.78;4142382;28;20037;-69
2023/04/11 01:06:13;;;;;;;4.10;1.40;;;;;;;12.92;71.28;100214.47;4120080;28;20556;-69
2023/04/11 01:08:18;;;;;;;2.90;1.42;;;;;;;12.86;71.74;100217.09;4127230;28;20043;-69
2023/04/11 01:10:21;;;;;;;4.03;1.50;;;;;;;12.84;71.58;100222.31;4128305;28;20042;-69
2023/04/11 01:12:26;;;;;;;4.97;1.90;;;;;;;12.78;71.77;100235.34;4130349;28;20745;-69
2023/04/11 01:14:28;;;;;;;2.65;1.58;;;;;;;12.74;71.78;100241.44;4141891;28;20037;-69
2023/04/11 01:16:31;;;;;;;2.63;1.40;;;;;;;12.69;72.23;100243.16;4125600;28;20042;-69
2023/04/11 01:18:35;;;;;;;2.50;1.40;;;;;;;12.66;72.06;100243.13;4117722;28;20057;-69
2023/04/11 01:20:38;;;;;;;1.38;1.13;;;;;;;12.68;71.71;100241.41;4107251;28;20138;-70
2023/04/11 01:22:43;;;;;;;2.20;1.50;;;;;;;12.70;71.73;100244.88;4129953;28;20041;-69
2023/04/11 01:24:47;;;;;;;4.13;1.52;;;;;;;12.72;71.66;100251.00;4111096;28;20112;-70
2023/04/11 01:26:50;;;;;;;2.83;1.35;;;;;;;12.68;72.00;100257.94;4126195;28;20093;-69
2023/04/11 01:28:54;;;;;;;4.25;1.27;;;;;;;12.72;71.24;100254.47;4128011;28;20039;-70
2023/04/11 01:30:57;;;;;;;2.97;1.48;;;;;;;12.75;71.46;100272.72;4126866;28;20080;-69
2023/04/11 01:33:00;;;;;;;1.30;1.10;;;;;;;12.66;71.09;100267.50;4112702;28;20070;-69
2023/04/11 01:35:05;;;;;;;3.58;1.33;;;;;;;12.67;71.17;100264.00;4130739;28;20125;-70
2023/04/11 01:37:08;;;;;;;2.40;1.60;;;;;;;12.69;70.99;100258.81;4124678;28;20039;-69
2023/04/11 01:39:11;;;;;;;4.18;1.48;;;;;;;12.74;70.83;100259.69;4129346;28;20530;-69
2023/04/11 01:41:16;;;;;;;3.72;1.23;;;;;;;12.74;70.85;100270.97;4124337;28;20074;-69
2023/04/11 01:43:19;;;;;;;2.35;1.52;;;;;;;12.71;71.14;100270.13;4128531;28;20038;-69
2023/04/11 01:45:26;;;;;;;3.05;1.30;;;;;;;12.72;71.36;100264.03;4142916;28;20034;-69
2023/04/11 01:47:30;;;;;;;2.25;1.20;;;;;;;12.68;71.89;100264.91;4123652;28;20050;-70
2023/04/11 01:49:33;;;;;;;3.40;1.15;;;;;;;12.68;71.81;100267.50;4122705;28;20141;-69
2023/04/11 01:51:36;;;;;;;2.42;1.27;;;;;;;12.68;71.68;100267.50;4118543;28;20041;-69
2023/04/11 01:53:39;;;;;;;3.33;1.30;;;;;;;12.65;71.45;100263.16;4145363;28;20479;-69
2023/04/11 01:55:42;;;;;;;2.47;1.02;;;;;;;12.68;71.12;100267.50;4128509;28;20035;-70
2023/04/11 01:58:18;;;;;;;5.03;1.27;;;;;;;12.76;70.47;100255.31;4121899;28;20038;-71
2023/04/11 02:00:22;;;;;;;1.88;1.13;;;;;;;12.70;70.14;100265.75;4122585;28;20065;-70
2023/04/11 02:02:26;;;;;;;2.20;1.10;;;;;;;12.63;70.50;100258.78;4129280;28;20030;-69
2023/04/11 02:04:29;;;;;;;1.95;1.20;;;;;;;12.57;70.93;100259.63;4130572;28;20070;-70
2023/04/11 02:06:32;;;;;;;4.65;1.10;;;;;;;12.52;71.46;100256.16;4122110;28;20097;-69
2023/04/11 02:08:35;;;;;;;1.42;1.25;;;;;;;12.53;71.56;100261.38;4127837;28;20085;-69
2023/04/11 02:10:38;;;;;;;1.35;0.95;;;;;;;12.53;71.49;100253.56;4126226;28;20058;-68
2023/04/11 02:12:41;;;;;;;4.60;1.20;;;;;;;12.52;70.96;100246.59;4124444;28;20055;-69
2023/04/11 02:14:46;;;;;;;1.60;0.80;;;;;;;12.50;70.02;100248.34;4123277;28;20108;-69
2023/04/11 02:16:50;;;;;;;3.15;1.25;;;;;;;12.46;70.85;100243.97;4121832;28;20034;-70
2023/04/11 02:18:53;;;;;;;1.73;0.90;;;;;;;12.49;70.89;100251.78;4138981;28;20132;-69
2023/04/11 02:20:57;;;;;;;1.63;1.00;;;;;;;12.50;70.68;100248.34;4127806;28;20085;-69
2023/04/11 02:23:03;;;;;;;2.17;1.00;;;;;;;12.48;69.98;100242.22;4121640;28;20049;-69
2023/04/11 02:25:07;;;;;;;1.55;0.98;;;;;;;12.50;70.11;100242.22;4119774;28;20079;-69
2023/04/11 02:27:11;;;;;;;2.15;1.08;;;;;;;12.44;69.94;100245.72;4127360;28;20128;-70
2023/04/11 02:29:14;;;;;;;1.83;0.85;;;;;;;12.38;68.98;100254.38;4144340;28;20567;-70
2023/04/11 02:31:18;;;;;;;4.13;1.02;;;;;;;12.34;69.15;100260.44;4127112;28;20057;-70
2023/04/11 02:33:21;;;;;;;3.22;1.10;;;;;;;12.38;68.99;100261.31;4126258;28;20034;-70
2023/04/11 02:35:23;;;;;;;4.50;1.17;;;;;;;12.44;68.89;100256.16;4123837;28;20074;-69
2023/04/11 02:37:26;;;;;;;2.55;1.00;;;;;;;12.51;68.30;100254.41;4124385;28;20085;-70
2023/04/11 02:39:31;;;;;;;1.63;1.05;;;;;;;12.43;68.94;100263.97;4122525;28;20031;-69
2023/04/11 02:41:34;;;;;;;2.50;1.20;;;;;;;12.33;68.48;100270.88;4127256;28;20492;-69
2023/04/11 02:43:37;;;;;;;2.00;0.90;;;;;;;12.32;68.63;100277.78;4126804;28;20034;-69
2023/04/11 02:45:40;;;;;;;1.30;0.93;;;;;;;12.35;68.85;100272.63;4122786;28;20125;-69
2023/04/11 02:47:44;;;;;;;2.95;1.10;;;;;;;12.41;68.40;100274.34;4144791;28;20033;-70
2023/04/11 02:49:47;;;;;;;1.85;1.10;;;;;;;12.42;68.22;100275.25;4121434;28;20449;-69
2023/04/11 02:51:54;;;;;;;1.42;0.77;;;;;;;12.32;68.56;100269.97;4140090;28;20483;-69
2023/04/11 02:53:57;;;;;;;1.88;0.90;;;;;;;12.34;68.10;100275.22;4127368;28;20038;-69
2023/04/11 02:56:01;;;;;;;2.15;0.95;;;;;;;12.34;68.74;100272.63;4145694;28;20057;-69
2023/04/11 02:58:04;;;;;;;2.05;1.05;;;;;;;12.30;69.62;100281.28;4120460;28;20030;-69
2023/04/11 03:00:08;;;;;;;4.45;1.40;;;;;;;12.28;70.98;100270.84;4128703;28;20045;-69
2023/04/11 03:02:21;;;;;;;4.13;1.42;;;;;;;12.24;70.59;100276.91;4123550;28;20449;-68
2023/04/11 03:04:27;;;;;;;1.90;0.75;;;;;;;12.16;70.90;100289.91;4117665;28;20390;-69
2023/04/11 03:06:39;;;;;;;1.90;1.10;;;;;;;12.07;70.02;100289.00;4129351;28;20050;-68
2023/04/11 03:08:42;;;;;;;2.42;0.95;;;;;;;12.05;70.64;100275.94;4143091;28;20034;-69
2023/04/11 03:10:45;;;;;;;2.40;1.05;;;;;;;12.10;70.55;100279.44;4127579;28;20038;-68
2023/04/11 03:12:49;;;;;;;3.10;1.20;;;;;;;12.08;70.75;100283.78;4120786;28;20543;-68
2023/04/11 03:14:52;;;;;;;5.70;1.65;;;;;;;12.11;70.80;100291.63;4111802;28;20038;-68
2023/04/11 03:16:56;;;;;;;5.10;1.63;;;;;;;12.15;70.13;100295.97;4129047;28;20044;-68
2023/04/11 03:18:59;;;;;;;3.97;1.13;;;;;;;12.13;69.18;100300.28;4127887;28;20042;-68
2023/04/11 03:21:06;;;;;;;3.67;1.13;;;;;;;12.10;69.61;100299.44;4126758;28;20046;-68
2023/04/11 03:23:09;;;;;;;4.50;1.40;;;;;;;12.07;69.81;100309.84;4127943;28;20042;-68
2023/04/11 03:25:12;;;;;;;2.53;1.30;;;;;;;12.01;69.93;100313.28;4123533;28;20034;-68
2023/04/11 03:27:15;;;;;;;5.35;1.15;;;;;;;12.01;70.15;100315.88;4128991;28;20427;-68
2023/04/11 03:29:20;;;;;;;6.30;1.48;;;;;;;11.98;70.16;100319.31;4143568;28;22009;-68
2023/04/11 03:31:40;;;;;;;5.40;1.58;;;;;;;11.95;69.86;100321.91;4128901;28;20133;-68
2023/04/11 03:33:44;;;;;;;6.13;1.60;;;;;;;11.75;70.69;100313.94;4144614;28;20467;-68
2023/04/11 03:35:47;;;;;;;6.35;1.33;;;;;;;11.68;71.29;100312.13;4125119;28;20130;-68
2023/04/11 03:37:52;;;;;;;3.85;1.25;;;;;;;11.67;71.67;100305.22;4122420;28;20089;-68
2023/04/11 03:39:55;;;;;;;4.38;1.35;;;;;;;11.67;73.13;100294.78;4126339;28;20584;-68
2023/04/11 03:42:00;;;;;;;3.97;1.40;;;;;;;11.69;73.66;100287.84;4144211;28;20033;-68
2023/04/11 03:44:04;;;;;;;7.70;2.65;;;;;;;11.70;73.94;100280.06;4120795;28;20499;-68
2023/04/11 03:46:06;;;;;;;4.38;1.30;;;;;;;11.72;73.49;100277.44;4111484;28;20461;-68
2023/04/11 03:48:13;;;;;;;4.32;1.25;;;;;;;11.72;73.75;100298.28;4139880;28;20037;-69
2023/04/11 03:50:26;;;;;;;5.25;1.55;;;;;;;11.74;73.93;100278.34;4125361;28;20038;-68
2023/04/11 03:52:34;;;;;;;2.97;1.17;;;;;;;11.76;73.10;100275.75;4112113;28;20043;-68
2023/04/11 03:54:40;;;;;;;3.00;1.00;;;;;;;11.71;73.51;100280.94;4137086;28;20257;-68
2023/04/11 03:56:45;;;;;;;5.55;1.65;;;;;;;11.67;73.64;100294.78;4127756;28;20066;-68
2023/04/11 03:58:54;;;;;;;5.28;1.75;;;;;;;11.65;74.64;100301.72;4125094;28;20485;-68
2023/04/11 04:01:02;;;;;;;4.53;1.35;;;;;;;11.67;74.25;100307.81;4123705;28;20116;-68
2023/04/11 04:03:06;;;;;;;4.95;1.60;;;;;;;11.79;73.45;100304.41;4144430;28;20038;-67
2023/04/11 04:05:12;;;;;;;7.03;1.60;;;;;;;11.84;72.78;100314.00;4140990;28;20514;-68
2023/04/11 04:07:16;;;;;;;;;;;;;;;11.79;72.69;100328.72;4128470;28;20052;-67
2023/04/11 04:09:20;;;;;;;5.40;1.70;;;;;;;11.81;72.89;100329.63;4129069;28;19960;-68
2023/04/11 04:11:28;;;;;;;5.22;1.73;;;;;;;11.74;71.76;100311.31;4120157;28;20042;-68
2023/04/11 04:13:33;;;;;;;7.82;1.88;;;;;;;11.53;72.39;100297.28;4125116;28;20035;-67
2023/04/11 04:15:47;;;;;;;5.47;2.38;;;;;;;11.39;72.99;100301.50;4117953;28;20038;-68
2023/04/11 04:17:51;;;;;;;5.43;1.90;;;;;;;11.28;73.39;100304.03;4144235;28;20069;-67
2023/04/11 04:20:03;;;;;;;4.15;1.45;;;;;;;11.23;73.45;100292.69;4119934;28;20536;-68
2023/04/11 04:22:10;;;;;;;6.07;1.90;;;;;;;11.24;74.50;100276.22;4108682;28;20042;-68
2023/04/11 04:24:16;;;;;;;5.07;1.80;;;;;;;11.22;74.87;100271.00;4117385;28;20058;-68
2023/04/11 04:26:30;;;;;;;4.95;1.80;;;;;;;11.22;75.14;100268.41;4125150;28;20038;-68
2023/04/11 04:28:52;;;;;;;2.95;1.13;;;;;;;11.21;74.65;100274.47;4126955;28;20031;-68
2023/04/11 04:31:02;;;;;;;4.97;2.00;;;;;;;11.14;74.60;100283.97;4112019;28;20468;-68
2023/04/11 04:33:14;;;;;;;4.45;1.85;;;;;;;11.16;74.69;100292.66;4142113;28;20077;-68
2023/04/11 04:35:21;;;;;;;3.55;1.80;;;;;;;11.17;75.42;100309.16;4126770;28;20085;-68
2023/04/11 04:37:26;;;;;;;5.22;1.60;;;;;;;11.26;73.72;100313.56;4125111;28;20030;-68
2023/04/11 04:39:44;;;;;;;7.45;1.75;;;;;;;11.18;73.80;100327.38;4141672;28;20041;-68
2023/04/11 04:41:57;;;;;;;4.32;1.40;;;;;;;11.15;74.74;100336.88;4126732;28;20060;-68
2023/04/11 04:44:08;;;;;;;4.88;1.33;;;;;;;11.14;74.60;100332.50;4143210;28;20049;-68
2023/04/11 04:46:16;;;;;;;7.63;2.10;;;;;;;11.15;74.89;100331.66;4119814;28;20089;-68
2023/04/11 04:48:24;;;;;;;4.20;1.90;;;;;;;11.28;74.37;100324.84;4128188;28;20034;-68
2023/04/11 04:50:27;;;;;;;8.15;3.28;;;;;;;11.28;73.33;100317.91;4129222;28;20752;-68
2023/04/11 04:52:30;;;;;;;3.72;1.75;;;;;;;11.21;74.03;100321.31;4127456;28;20038;-68
2023/04/11 04:54:33;;;;;;;4.78;2.20;;;;;;;11.15;74.58;100323.84;4119019;28;20094;-68
2023/04/11 04:56:37;;;;;;;5.80;2.80;;;;;;;11.13;74.66;100308.22;4124020;28;20518;-68
2023/04/11 04:58:41;;;;;;;5.35;3.53;;;;;;;11.20;74.60;100319.59;4112459;28;20062;-68
2023/04/11 05:00:49;;;;;;;10.73;5.35;;;;;;;11.18;73.89;100322.16;4126119;28;20041;-68
2023/04/11 05:02:56;;;;;;;7.55;3.20;;;;;;;11.06;75.34;100332.44;4122573;28;20042;-68
2023/04/11 05:05:06;;;;;;;5.40;2.05;;;;;;;11.05;74.72;100330.69;4120012;28;20129;-68
2023/04/11 05:07:09;;;;;;;6.93;1.70;;;;;;;10.99;74.86;100333.22;4143997;28;20128;-68
2023/04/11 05:09:12;;;;;;;5.35;1.80;;;;;;;10.95;74.80;100347.06;4129528;28;20045;-68
2023/04/11 05:11:15;;;;;;;2.53;1.50;;;;;;;10.96;74.96;100346.22;4126720;28;20089;-68
2023/04/11 05:13:18;;;;;;;4.63;1.60;;;;;;;10.93;75.18;100352.25;4127474;28;20046;-68
2023/04/11 05:15:22;;;;;;;3.42;1.60;;;;;;;10.96;75.24;100347.06;4121486;28;20034;-68
2023/04/11 05:17:26;;;;;;;5.22;1.30;;;;;;;10.97;75.97;100355.75;4130066;28;20042;-68
2023/04/11 05:19:29;;;;;;;3.92;1.77;;;;;;;10.94;75.01;100361.78;4122899;28;20490;-68
2023/04/11 05:21:32;;;;;;;5.25;2.28;;;;;;;10.95;75.78;100349.66;4128959;28;20069;-68
2023/04/11 05:23:35;;;;;;;3.92;1.58;;;;;;;11.00;75.61;100353.19;4127197;28;20034;-68
2023/04/11 05:25:38;;;;;;;3.88;1.60;;;;;;;11.02;75.67;100361.88;4147243;28;20049;-68
2023/04/11 05:27:44;;;;;;;2.38;1.25;;;;;;;10.89;73.91;100360.00;4120103;28;20326;-68
2023/04/11 05:29:47;;;;;;;3.38;1.23;;;;;;;10.82;73.11;100365.13;4130296;28;20464;-68
2023/04/11 05:31:53;;;;;;;4.28;1.23;;;;;;;10.75;72.66;100358.13;4143941;28;20096;-68
2023/04/11 05:33:57;;;;;;;5.57;1.30;;;;;;;10.73;71.97;100365.03;4126295;28;20516;-68
2023/04/11 05:36:02;;;;;;;4.32;1.30;;;;;;;10.57;71.17;100357.88;4127852;28;20079;-68
2023/04/11 05:38:05;;;;;;;1.92;1.10;;;;;;;10.44;72.10;100357.75;4132188;28;20065;-68
2023/04/11 05:40:09;;;;;;;2.45;1.10;;;;;;;10.42;72.48;100355.97;4125820;28;20042;-68
2023/04/11 05:42:12;;;;;;;4.38;1.40;;;;;;;10.47;72.46;100368.19;4129221;28;20034;-68
2023/04/11 05:44:15;;;;;;;3.08;1.45;;;;;;;10.41;72.25;100372.41;4131674;28;20109;-68
2023/04/11 05:46:18;;;;;;;6.93;1.45;;;;;;;10.30;72.00;100382.63;4127541;28;20132;-68
2023/04/11 05:48:23;;;;;;;4.85;2.25;;;;;;;10.17;71.68;100383.31;4131147;28;20095;-69
2023/04/11 05:50:26;;;;;;;5.85;1.60;;;;;;;10.19;72.25;100384.19;4130738;28;20057;-68
2023/04/11 05:52:29;;;;;;;6.80;1.92;;;;;;;10.11;71.77;100387.56;4130437;28;20157;-68
2023/04/11 05:54:33;;;;;;;4.25;1.67;;;;;;;10.13;71.17;100384.97;4130684;28;20419;-68
2023/04/11 05:56:38;;;;;;;6.50;1.38;;;;;;;10.19;71.47;100386.78;4130120;28;20046;-68
2023/04/11 05:58:43;;;;;;;3.97;1.42;;;;;;;10.14;71.07;100395.38;4127199;28;20578;-68
2023/04/11 06:00:45;;;;;;;4.72;1.33;;;;;;;10.14;71.77;100405.78;4119509;28;20465;-68
2023/04/11 06:02:49;;;;;;;5.57;1.42;;;;;;;10.05;71.27;100410.84;4115561;28;20041;-68
2023/04/11 06:04:54;;;;;;;5.28;1.20;;;;;;;10.11;71.30;100402.28;4124136;28;20440;-68
2023/04/11 06:06:57;;;;;;;3.65;1.33;;;;;;;10.10;71.14;100413.50;4132342;28;20034;-68
2023/04/11 06:08:59;;;;;;;4.30;1.27;;;;;;;10.10;71.38;100411.81;4131081;28;20034;-68
2023/04/11 06:11:02;;;;;;;8.13;2.25;;;;;;;10.09;71.06;100417.84;4140682;28;20407;-68
2023/04/11 06:13:05;;;;;;;5.95;1.83;;;;;;;10.17;70.73;100427.47;4127715;28;20038;-68
2023/04/11 06:15:10;;;;;;;6.63;1.48;;;;;;;10.20;70.64;100414.53;4131604;28;20042;-68
2023/04/11 06:17:13;;;;;;;4.82;1.63;;;;;;;10.25;70.16;100420.66;4126321;28;20417;-69
2023/04/11 06:19:16;;;;;;;5.82;1.40;;;;;;;10.29;70.68;100430.25;4143050;28;20030;-68
2023/04/11 06:21:20;;;;;;;6.10;1.40;;;;;;;10.35;70.62;100434.69;4132308;28;20042;-68
2023/04/11 06:23:23;;;;;;;6.10;1.33;;;;;;;10.35;70.12;100427.75;4125069;28;20413;-68
2023/04/11 06:25:26;;;;;;;7.10;1.95;;;;;;;10.35;70.08;100416.50;4129970;28;20034;-68
2023/04/11 06:27:28;;;;;;;4.03;1.20;;;;;;;10.36;69.63;100421.72;4131595;28;20526;-68
2023/04/11 06:29:34;;;;;;;10.95;1.70;;;;;;;10.40;67.78;100433.06;4131235;28;20038;-68
2023/04/11 06:31:37;;;;;;;6.07;1.58;;;;;;;10.37;68.74;100446.00;4126046;28;20049;-68
2023/04/11 06:33:40;;;;;;;5.45;1.30;;;;;;;10.31;68.52;100438.94;4130815;28;20097;-69
2023/04/11 06:35:43;;;;;;;6.10;1.45;;;;;;;10.34;67.87;100444.22;4130229;28;20125;-68
2023/04/11 06:37:47;;;;;;;7.57;1.92;;;;;;;10.29;68.38;100454.53;4130766;28;20050;-68
2023/04/11 06:39:50;;;;;;;4.43;1.60;;;;;;;10.29;68.56;100454.53;4131128;28;20104;-69
2023/04/11 06:41:53;;;;;;;5.82;1.48;;;;;;;10.38;68.92;100456.41;4131190;28;20604;-69
2023/04/11 06:44:00;;;;;;;8.93;2.13;;;;;;;10.31;67.66;100452.81;4144819;28;20037;-69
2023/04/11 06:46:03;;;;;;;5.53;1.48;;;;;;;10.40;67.92;100457.31;4129864;28;20042;-68
2023/04/11 06:48:06;;;;;;;8.98;1.70;;;;;;;10.36;67.44;100470.22;4140998;28;20061;-68
2023/04/11 06:50:10;;;;;;;7.10;1.80;;;;;;;10.34;66.80;100475.41;4129074;28;20547;-68
2023/04/11 06:52:15;;;;;;;5.38;1.75;;;;;;;10.38;65.85;100487.59;4127504;28;20547;-68
2023/04/11 06:54:20;;;;;;;5.63;1.50;;;;;;;10.45;65.77;100468.66;4130237;28;20432;-68
2023/04/11 06:56:23;;;;;;;6.55;1.70;;;;;;;10.48;66.54;100475.59;4130765;28;20034;-68
2023/04/11 06:58:25;;;;;;;8.35;2.25;;;;;;;10.50;66.51;100478.22;4129504;28;20034;-68
2023/04/11 07:00:28;;;;;;;8.77;2.40;;;;;;;10.61;65.58;100480.13;4131048;28;20062;-68
2023/04/11 07:02:34;;;;;;;9.80;2.45;;;;;;;10.59;65.40;100479.25;4128985;28;20034;-68
2023/04/11 07:04:37;;;;;;;6.00;1.90;;;;;;;10.62;64.98;100491.41;4130230;28;20048;-68
2023/04/11 07:06:40;;;;;;;12.25;3.17;;;;;;;10.64;65.63;100502.69;4125026;28;20038;-68
2023/04/11 07:08:43;;;;;;;9.10;2.03;;;;;;;10.72;65.61;100503.69;4122092;28;20034;-68
2023/04/11 07:10:47;;;;;;;7.80;2.67;;;;;;;10.80;64.16;100496.00;4124077;28;20100;-68
2023/04/11 07:12:50;;;;;;;7.05;1.88;;;;;;;10.64;63.07;100500.09;4128994;28;20507;-68
2023/04/11 07:14:52;;;;;;;14.75;2.95;;;;;;;10.54;64.18;100506.00;4129971;28;20042;-68
2023/04/11 07:16:55;;;;;;;7.32;1.35;;;;;;;10.50;64.02;100509.41;4125590;28;20088;-68
2023/04/11 07:18:58;;;;;;;9.82;1.90;;;;;;;10.46;62.88;100505.91;4127529;28;20377;-68
2023/04/11 07:21:01;;;;;;;8.00;1.83;;;;;;;10.53;63.35;100515.53;4117956;28;20047;-68
2023/04/11 07:23:04;;;;;;;7.90;2.25;;;;;;;10.58;63.44;100518.22;4128223;28;20478;-68
2023/04/11 07:25:07;;;;;;;9.27;2.10;;;;;;;10.60;64.13;100508.69;4130441;28;20046;-69
2023/04/11 07:27:12;;;;;;;10.98;2.53;;;;;;;10.70;64.32;100514.91;4123471;28;20042;-69
2023/04/11 07:29:15;;;;;;;11.43;2.63;;;;;;;10.78;64.36;100513.31;4125451;28;20038;-70
2023/04/11 07:31:21;;;;;;;6.85;1.98;;;;;;;10.93;64.79;100507.44;4126222;28;20039;-67
2023/04/11 07:33:24;;;;;;;9.82;2.03;;;;;;;11.03;63.62;100503.25;4129118;28;20039;-67
2023/04/11 07:35:27;;;;;;;8.18;2.13;;;;;;;11.20;63.40;100508.63;4129953;28;20077;-68
2023/04/11 07:37:31;;;;;;;13.38;2.53;;;;;;;11.19;64.03;100507.78;4142011;28;20042;-68
2023/04/11 07:39:34;;;;;;;7.60;2.00;;;;;;;11.16;62.99;100516.41;4130404;28;20038;-67
2023/04/11 07:41:37;;;;;;;7.55;1.92;;;;;;;11.12;63.23;100514.63;4129021;28;20053;-67
2023/04/11 07:43:41;;;;;;;7.10;1.90;;;;;;;11.22;62.86;100515.63;4142684;28;20096;-67
2023/04/11 07:45:44;;;;;;;7.78;1.77;;;;;;;11.43;61.63;100525.41;4123208;28;20034;-67
2023/04/11 07:47:47;;;;;;;6.25;1.70;;;;;;;11.47;60.10;100516.78;4129627;28;20049;-67
2023/04/11 07:49:49;;;;;;;8.70;1.65;;;;;;;11.41;60.87;100526.25;4129513;28;20030;-67
2023/04/11 07:51:52;;;;;;;9.63;1.85;;;;;;;11.47;59.87;100521.97;4128829;28;20042;-67
2023/04/11 07:53:55;;;;;;;7.43;1.92;;;;;;;11.47;59.24;100521.13;4128733;28;20400;-67
2023/04/11 07:55:58;;;;;;;6.32;2.20;;;;;;;11.46;59.14;100525.47;4129935;28;20061;-67
2023/04/11 07:58:01;;;;;;;5.85;1.50;;;;;;;11.51;58.53;100531.59;4144057;28;20046;-69
2023/04/11 08:00:08;;;;;;;5.45;1.50;;;;;;;11.55;57.54;100513.38;4122424;28;20034;-69
2023/04/11 08:02:16;;;;;;;9.55;1.50;;;;;;;11.46;57.21;100520.25;4111156;28;20042;-70
2023/04/11 08:04:23;;;;;;;5.03;1.58;;;;;;;11.57;57.81;100527.31;4130119;28;20069;-70
2023/04/11 08:06:27;;;;;;;5.88;1.40;;;;;;;11.68;57.29;100526.56;4129811;28;20066;-69
2023/04/11 08:08:30;;;;;;;6.07;1.60;;;;;;;11.72;55.60;100521.38;4127663;28;20034;-70
2023/04/11 08:10:33;;;;;;;8.73;1.63;;;;;;;11.61;55.97;100521.25;4116019;28;20071;-69
2023/04/11 08:12:36;;;;;;;7.97;1.90;;;;;;;11.56;56.71;100521.22;4129945;28;20046;-68
2023/04/11 08:14:39;;;;;;;6.65;1.38;;;;;;;11.61;55.64;100518.66;4144921;28;20068;-67
2023/04/11 08:16:43;;;;;;;7.38;1.70;;;;;;;11.70;55.77;100524.84;4126041;28;20112;-67
2023/04/11 08:18:46;;;;;;;4.97;1.65;;;;;;;11.73;53.08;100521.41;4128013;28;20034;-67
2023/04/11 08:20:49;;;;;;;4.53;1.80;;;;;;;11.86;53.26;100518.06;4130132;28;20043;-67
2023/04/11 08:22:53;;;;;;;9.02;1.85;;;;;;;12.00;53.17;100522.56;4131186;28;20403;-69
2023/04/11 08:24:56;;;;;;;7.68;1.45;;;;;;;11.99;52.71;100513.03;4129103;28;20496;-70
2023/04/11 08:26:58;;;;;;;6.95;1.63;;;;;;;12.12;52.48;100514.88;4132232;28;20042;-67
2023/04/11 08:29:02;;;;;;;11.00;3.03;;;;;;;12.35;52.33;100512.47;4133099;28;20046;-66
2023/04/11 08:31:05;;;;;;;5.25;1.90;;;;;;;12.42;50.82;100515.97;4131448;28;20508;-66
2023/04/11 08:33:11;;;;;;;4.82;1.52;;;;;;;12.46;51.28;100515.13;4128304;28;20129;-65
2023/04/11 08:35:13;;;;;;;5.72;2.05;;;;;;;12.51;51.54;100529.09;4127331;28;20121;-67
2023/04/11 08:37:16;;;;;;;7.97;1.77;;;;;;;12.48;51.87;100536.00;4127991;28;20092;-67
2023/04/11 08:39:19;;;;;;;7.65;1.77;;;;;;;12.47;50.68;100529.94;4145684;28;20061;-67
2023/04/11 08:41:22;;;;;;;7.22;1.80;;;;;;;12.28;51.21;100539.34;4130107;28;20085;-67
2023/04/11 08:43:25;;;;;;;5.65;1.27;;;;;;;12.23;51.07;100536.66;4130238;28;20046;-68
2023/04/11 08:45:28;;;;;;;9.43;2.30;;;;;;;12.21;51.62;100538.41;4130599;28;20366;-67
2023/04/11 08:47:31;;;;;;;11.30;1.98;;;;;;;12.08;51.37;100546.97;4129919;28;20046;-67
2023/04/11 08:49:36;;;;;;;7.40;1.50;;;;;;;12.02;52.14;100546.91;4132261;28;20046;-67
2023/04/11 08:51:43;;;;;;;11.50;3.47;;;;;;;11.94;51.15;100532.94;4131552;28;20035;-68
2023/04/11 08:53:46;;;;;;;7.07;1.77;;;;;;;11.92;51.81;100545.91;4125510;28;20038;-68
2023/04/11 08:55:49;;;;;;;8.57;1.52;;;;;;;12.00;51.36;100536.47;4132134;28;20182;-66
2023/04/11 08:57:53;;;;;;;9.05;1.60;;;;;;;12.10;51.21;100532.22;4132485;28;20089;-67
2023/04/11 08:59:59;;;;;;;8.23;2.17;;;;;;;12.16;49.83;100524.47;4129402;28;20049;-66
2023/04/11 09:02:07;;;;;;;7.75;2.10;;;;;;;12.43;49.85;100520.34;4147603;28;20509;-71
2023/04/11 09:04:11;;;;;;;8.52;1.98;;;;;;;12.61;48.93;100519.56;4131846;28;20184;-65
2023/04/11 09:06:15;;;;;;;11.82;2.40;;;;;;;12.67;48.77;100517.00;4131396;28;20088;-66
2023/04/11 09:08:18;;;;;;;10.30;1.83;;;;;;;12.72;49.13;100519.66;4143012;28;20048;-66
2023/04/11 09:10:23;;;;;;;8.65;1.98;;;;;;;12.98;49.16;100505.88;4120934;28;20038;-66
2023/04/11 09:12:29;;;;;;;4.78;1.65;;;;;;;13.10;48.48;100514.66;4145419;28;20030;-68
2023/04/11 09:14:32;;;;;;;6.28;1.52;;;;;;;13.10;47.79;100517.25;4121189;28;20049;-70
2023/04/11 09:16:35;;;;;;;5.65;1.40;;;;;;;13.15;47.88;100509.44;4123456;28;20034;-68
2023/04/11 09:18:40;;;;;;;7.97;1.70;;;;;;;13.24;47.54;100514.72;4128582;28;20045;-69
2023/04/11 09:20:42;;;;;;;8.20;1.70;;;;;;;13.28;46.92;100515.59;4123645;28;20042;-70
2023/04/11 09:22:49;;;;;;;6.97;1.77;;;;;;;13.40;47.02;100515.69;4130553;28;20045;-69
2023/04/11 09:25:02;;;;;;;3.88;1.33;;;;;;;13.45;46.77;100518.31;4131403;28;20042;-70
2023/04/11 09:27:10;;;;;;;7.68;1.92;;;;;;;13.21;47.73;100517.28;4126921;28;20038;-70
2023/04/11 09:29:34;;;;;;;5.95;1.50;;;;;;;12.85;47.35;100516.25;4131983;28;20038;-67
2023/04/11 09:31:42;;;;;;;6.20;1.63;;;;;;;12.77;49.00;100519.69;4129969;28;20056;-67
2023/04/11 09:33:53;;;;;;;10.85;2.63;;;;;;;12.74;49.13;100526.63;4127100;28;20129;-63
2023/04/11 09:35:56;;;;;;;7.65;1.98;;;;;;;12.96;49.46;100523.28;4125542;28;20053;-63
2023/04/11 09:38:02;;;;;;;9.13;2.13;;;;;;;12.92;49.22;100523.25;4132184;28;20132;-64